sensor_id;sensor_type;location;lat;lon;timestamp;pressure;altitude;pressure_sealevel;temperature;humidity
47522;BME280;32291;52.010;4.446;2022-12-18T00:00:24;81391.22;;;-144.67;100.00
47522;BME280;32291;52.010;4.446;2022-12-18T00:01:34;81389.06;;;-144.67;100.00
47522;BME280;32291;52.010;4.446;2022-12-18T00:02:37;81389.06;;;-144.67;100.00
47522;BME280;32291;52.010;4.446;2022-12-18T00:03:39;81389.06;;;-144.67;100.00
47522;BME280;32291;52.010;4.446;2022-12-18T00:04:41;81391.22;;;-144.67;100.00
47522;BME280;32291;52.010;4.446;2022-12-18T00:05:48;81382.63;;;-144.67;100.00
47522;BME280;32291;52.010;4.446;2022-12-18T00:06:51;81384.78;;;-144.67;100.00
47522;BME280;32291;52.010;4.446;2022-12-18T00:07:53;81382.63;;;-144.67;100.00
47522;BME280;32291;52.010;4.446;2022-12-18T00:08:57;81380.50;;;-144.67;100.00
47522;BME280;32291;52.010;4.446;2022-12-18T00:09:59;81378.34;;;-144.67;100.00
47522;BME280;32291;52.010;4.446;2022-12-18T00:11:10;81378.34;;;-144.67;100.00
47522;BME280;32291;52.010;4.446;2022-12-18T00:12:12;81389.06;;;-144.67;100.00
47522;BME280;32291;52.010;4.446;2022-12-18T00:13:13;81380.50;;;-144.67;100.00
47522;BME280;32291;52.010;4.446;2022-12-18T00:14:15;81376.22;;;-144.67;100.00
47522;BME280;32291;52.010;4.446;2022-12-18T00:15:18;81384.78;;;-144.67;100.00
47522;BME280;32291;52.010;4.446;2022-12-18T00:16:23;81376.22;;;-144.67;100.00
47522;BME280;32291;52.010;4.446;2022-12-18T00:17:26;81371.94;;;-144.67;100.00
47522;BME280;32291;52.010;4.446;2022-12-18T00:18:28;81380.50;;;-144.67;100.00
47522;BME280;32291;52.010;4.446;2022-12-18T00:19:30;81371.94;;;-144.67;100.00
47522;BME280;32291;52.010;4.446;2022-12-18T00:20:37;81371.94;;;-144.67;100.00
47522;BME280;32291;52.010;4.446;2022-12-18T00:21:41;81367.63;;;-144.67;100.00
47522;BME280;32291;52.010;4.446;2022-12-18T00:22:43;81376.22;;;-144.67;100.00
47522;BME280;32291;52.010;4.446;2022-12-18T00:23:47;81374.06;;;-144.67;100.00
47522;BME280;32291;52.010;4.446;2022-12-18T00:24:49;81380.50;;;-144.67;100.00
47522;BME280;32291;52.010;4.446;2022-12-18T00:25:51;81380.50;;;-144.67;100.00
47522;BME280;32291;52.010;4.446;2022-12-18T00:26:54;81380.50;;;-144.67;100.00
47522;BME280;32291;52.010;4.446;2022-12-18T00:27:55;81380.50;;;-144.67;100.00
47522;BME280;32291;52.010;4.446;2022-12-18T00:29:07;81384.78;;;-144.67;100.00
47522;BME280;32291;52.010;4.446;2022-12-18T00:30:09;81389.06;;;-144.67;100.00
47522;BME280;32291;52.010;4.446;2022-12-18T00:31:22;81374.06;;;-144.67;100.00
47522;BME280;32291;52.010;4.446;2022-12-18T00:32:25;81378.34;;;-144.67;100.00
47522;BME280;32291;52.010;4.446;2022-12-18T00:33:27;81389.06;;;-144.67;100.00
47522;BME280;32291;52.010;4.446;2022-12-18T00:34:29;81401.94;;;-144.67;100.00
47522;BME280;32291;52.010;4.446;2022-12-18T00:35:32;81389.06;;;-144.67;100.00
47522;BME280;32291;52.010;4.446;2022-12-18T00:36:34;81406.22;;;-144.67;100.00
47522;BME280;32291;52.010;4.446;2022-12-18T00:37:36;81397.63;;;-144.67;100.00
47522;BME280;32291;52.010;4.446;2022-12-18T00:38:39;81410.50;;;-144.67;100.00
47522;BME280;32291;52.010;4.446;2022-12-18T00:39:41;81406.22;;;-144.67;100.00
47522;BME280;32291;52.010;4.446;2022-12-18T00:40:44;81414.78;;;-144.67;100.00
47522;BME280;32291;52.010;4.446;2022-12-18T00:41:46;81410.50;;;-144.67;100.00
47522;BME280;32291;52.010;4.446;2022-12-18T00:43:09;81419.06;;;-144.67;100.00
47522;BME280;32291;52.010;4.446;2022-12-18T00:44:14;81414.78;;;-144.67;100.00
47522;BME280;32291;52.010;4.446;2022-12-18T00:45:17;81419.06;;;-144.67;100.00
47522;BME280;32291;52.010;4.446;2022-12-18T00:46:19;81416.94;;;-144.67;100.00
47522;BME280;32291;52.010;4.446;2022-12-18T00:47:21;81419.06;;;-144.67;100.00
47522;BME280;32291;52.010;4.446;2022-12-18T00:48:23;81427.66;;;-144.67;100.00
47522;BME280;32291;52.010;4.446;2022-12-18T00:49:24;81427.66;;;-144.67;100.00
47522;BME280;32291;52.010;4.446;2022-12-18T00:50:26;81419.06;;;-144.67;100.00
47522;BME280;32291;52.010;4.446;2022-12-18T00:51:28;81427.66;;;-144.67;100.00
47522;BME280;32291;52.010;4.446;2022-12-18T00:52:30;81425.50;;;-144.67;100.00
47522;BME280;32291;52.010;4.446;2022-12-18T00:53:32;81427.66;;;-144.67;100.00
47522;BME280;32291;52.010;4.446;2022-12-18T00:54:34;81429.78;;;-144.67;100.00
47522;BME280;32291;52.010;4.446;2022-12-18T00:55:39;81436.22;;;-144.67;100.00
47522;BME280;32291;52.010;4.446;2022-12-18T00:56:41;81431.94;;;-144.67;100.00
47522;BME280;32291;52.010;4.446;2022-12-18T00:57:42;81427.66;;;-144.67;100.00
47522;BME280;32291;52.010;4.446;2022-12-18T00:58:44;81434.06;;;-144.67;100.00
47522;BME280;32291;52.010;4.446;2022-12-18T00:59:46;81444.78;;;-144.67;100.00
47522;BME280;32291;52.010;4.446;2022-12-18T01:00:48;81444.78;;;-144.67;100.00
47522;BME280;32291;52.010;4.446;2022-12-18T01:01:50;81442.66;;;-144.67;100.00
47522;BME280;32291;52.010;4.446;2022-12-18T01:02:52;81444.78;;;-144.67;100.00
47522;BME280;32291;52.010;4.446;2022-12-18T01:03:54;81431.94;;;-144.67;100.00
47522;BME280;32291;52.010;4.446;2022-12-18T01:04:59;81440.50;;;-144.67;100.00
47522;BME280;32291;52.010;4.446;2022-12-18T01:06:07;81440.50;;;-144.67;100.00
47522;BME280;32291;52.010;4.446;2022-12-18T01:07:09;81440.50;;;-144.67;100.00
47522;BME280;32291;52.010;4.446;2022-12-18T01:08:11;81440.50;;;-144.67;100.00
47522;BME280;32291;52.010;4.446;2022-12-18T01:09:13;81442.66;;;-144.67;100.00
47522;BME280;32291;52.010;4.446;2022-12-18T01:10:15;81449.06;;;-144.67;100.00
47522;BME280;32291;52.010;4.446;2022-12-18T01:11:19;81449.06;;;-144.67;100.00
47522;BME280;32291;52.010;4.446;2022-12-18T01:12:21;81446.94;;;-144.67;100.00
47522;BME280;32291;52.010;4.446;2022-12-18T01:13:22;81449.06;;;-144.67;100.00
47522;BME280;32291;52.010;4.446;2022-12-18T01:14:24;81453.34;;;-144.67;100.00
47522;BME280;32291;52.010;4.446;2022-12-18T01:15:26;81455.50;;;-144.67;100.00
47522;BME280;32291;52.010;4.446;2022-12-18T01:16:28;81461.94;;;-144.67;100.00
47522;BME280;32291;52.010;4.446;2022-12-18T01:17:29;81466.22;;;-144.67;100.00
47522;BME280;32291;52.010;4.446;2022-12-18T01:18:32;81470.50;;;-144.67;100.00
47522;BME280;32291;52.010;4.446;2022-12-18T01:19:34;81474.78;;;-144.67;100.00
47522;BME280;32291;52.010;4.446;2022-12-18T01:20:38;81479.06;;;-144.67;100.00
47522;BME280;32291;52.010;4.446;2022-12-18T01:21:40;81470.50;;;-144.67;100.00
47522;BME280;32291;52.010;4.446;2022-12-18T01:22:41;81483.34;;;-144.67;100.00
47522;BME280;32291;52.010;4.446;2022-12-18T01:23:44;81483.34;;;-144.67;100.00
47522;BME280;32291;52.010;4.446;2022-12-18T01:24:46;81489.78;;;-144.67;100.00
47522;BME280;32291;52.010;4.446;2022-12-18T01:25:48;81481.22;;;-144.67;100.00
47522;BME280;32291;52.010;4.446;2022-12-18T01:26:50;81479.06;;;-144.67;100.00
47522;BME280;32291;52.010;4.446;2022-12-18T01:27:51;81483.34;;;-144.67;100.00
47522;BME280;32291;52.010;4.446;2022-12-18T01:28:55;81474.78;;;-144.67;100.00
47522;BME280;32291;52.010;4.446;2022-12-18T01:29:57;81496.22;;;-144.67;100.00
47522;BME280;32291;52.010;4.446;2022-12-18T01:31:15;81496.22;;;-144.67;100.00
47522;BME280;32291;52.010;4.446;2022-12-18T01:32:18;81504.78;;;-144.67;100.00
47522;BME280;32291;52.010;4.446;2022-12-18T01:33:19;81506.94;;;-144.67;100.00
47522;BME280;32291;52.010;4.446;2022-12-18T01:34:22;81513.34;;;-144.67;100.00
47522;BME280;32291;52.010;4.446;2022-12-18T01:35:24;81513.34;;;-144.67;100.00
47522;BME280;32291;52.010;4.446;2022-12-18T01:36:33;81524.06;;;-144.67;100.00
47522;BME280;32291;52.010;4.446;2022-12-18T01:37:35;81528.38;;;-144.67;100.00
47522;BME280;32291;52.010;4.446;2022-12-18T01:38:37;81534.78;;;-144.67;100.00
47522;BME280;32291;52.010;4.446;2022-12-18T01:39:39;81545.50;;;-144.67;100.00
47522;BME280;32291;52.010;4.446;2022-12-18T01:40:40;81543.38;;;-144.67;100.00
47522;BME280;32291;52.010;4.446;2022-12-18T01:41:42;81549.78;;;-144.67;100.00
47522;BME280;32291;52.010;4.446;2022-12-18T01:43:03;81551.94;;;-144.67;100.00
47522;BME280;32291;52.010;4.446;2022-12-18T01:45:59;81539.06;;;-144.67;100.00
47522;BME280;32291;52.010;4.446;2022-12-18T01:47:00;81551.94;;;-144.67;100.00
47522;BME280;32291;52.010;4.446;2022-12-18T01:48:06;81551.94;;;-144.67;100.00
47522;BME280;32291;52.010;4.446;2022-12-18T01:49:10;81543.38;;;-144.67;100.00
47522;BME280;32291;52.010;4.446;2022-12-18T01:50:29;81543.38;;;-144.67;100.00
47522;BME280;32291;52.010;4.446;2022-12-18T01:51:31;81545.50;;;-144.67;100.00
47522;BME280;32291;52.010;4.446;2022-12-18T01:52:34;81549.78;;;-144.67;100.00
47522;BME280;32291;52.010;4.446;2022-12-18T01:53:39;81556.22;;;-144.67;100.00
47522;BME280;32291;52.010;4.446;2022-12-18T01:54:41;81545.50;;;-144.67;100.00
47522;BME280;32291;52.010;4.446;2022-12-18T01:55:50;81539.06;;;-144.67;100.00
47522;BME280;32291;52.010;4.446;2022-12-18T01:56:53;81543.38;;;-144.67;100.00
47522;BME280;32291;52.010;4.446;2022-12-18T01:57:59;81547.66;;;-144.67;100.00
47522;BME280;32291;52.010;4.446;2022-12-18T01:59:05;81549.78;;;-144.67;100.00
47522;BME280;32291;52.010;4.446;2022-12-18T02:00:16;81551.94;;;-144.67;100.00
47522;BME280;32291;52.010;4.446;2022-12-18T02:01:22;81556.22;;;-144.67;100.00
47522;BME280;32291;52.010;4.446;2022-12-18T02:02:28;81560.50;;;-144.67;100.00
47522;BME280;32291;52.010;4.446;2022-12-18T02:03:32;81551.94;;;-144.67;100.00
47522;BME280;32291;52.010;4.446;2022-12-18T02:04:34;81551.94;;;-144.67;100.00
47522;BME280;32291;52.010;4.446;2022-12-18T02:05:59;81558.38;;;-144.67;100.00
47522;BME280;32291;52.010;4.446;2022-12-18T02:10:27;81551.94;;;-144.67;100.00
47522;BME280;32291;52.010;4.446;2022-12-18T02:11:59;81556.22;;;-144.67;100.00
47522;BME280;32291;52.010;4.446;2022-12-18T02:13:13;81554.06;;;-144.67;100.00
47522;BME280;32291;52.010;4.446;2022-12-18T02:19:01;81539.06;;;-144.67;100.00
47522;BME280;32291;52.010;4.446;2022-12-18T02:20:35;81539.06;;;-144.67;100.00
47522;BME280;32291;52.010;4.446;2022-12-18T02:22:06;81530.50;;;-144.67;100.00
47522;BME280;32291;52.010;4.446;2022-12-18T02:25:26;81539.06;;;-144.67;100.00
47522;BME280;32291;52.010;4.446;2022-12-18T02:26:50;81530.50;;;-144.67;100.00
47522;BME280;32291;52.010;4.446;2022-12-18T02:27:57;81545.50;;;-144.67;100.00
47522;BME280;32291;52.010;4.446;2022-12-18T02:29:13;81547.66;;;-144.67;100.00
47522;BME280;32291;52.010;4.446;2022-12-18T02:30:17;81547.66;;;-144.67;100.00
47522;BME280;32291;52.010;4.446;2022-12-18T02:31:24;81556.22;;;-144.67;100.00
47522;BME280;32291;52.010;4.446;2022-12-18T02:32:32;81560.50;;;-144.67;100.00
47522;BME280;32291;52.010;4.446;2022-12-18T02:33:36;81556.22;;;-144.67;100.00
47522;BME280;32291;52.010;4.446;2022-12-18T02:34:41;81556.22;;;-144.67;100.00
47522;BME280;32291;52.010;4.446;2022-12-18T02:35:46;81556.22;;;-144.67;100.00
47522;BME280;32291;52.010;4.446;2022-12-18T02:36:51;81545.50;;;-144.67;100.00
47522;BME280;32291;52.010;4.446;2022-12-18T02:37:55;81549.78;;;-144.67;100.00
47522;BME280;32291;52.010;4.446;2022-12-18T02:38:59;81547.66;;;-144.67;100.00
47522;BME280;32291;52.010;4.446;2022-12-18T02:40:04;81547.66;;;-144.67;100.00
47522;BME280;32291;52.010;4.446;2022-12-18T02:41:07;81543.38;;;-144.67;100.00
47522;BME280;32291;52.010;4.446;2022-12-18T02:42:10;81545.50;;;-144.67;100.00
47522;BME280;32291;52.010;4.446;2022-12-18T02:43:15;81534.78;;;-144.67;100.00
47522;BME280;32291;52.010;4.446;2022-12-18T02:44:18;81534.78;;;-144.67;100.00
47522;BME280;32291;52.010;4.446;2022-12-18T02:45:20;81534.78;;;-144.67;100.00
47522;BME280;32291;52.010;4.446;2022-12-18T02:46:35;81534.78;;;-144.67;100.00
47522;BME280;32291;52.010;4.446;2022-12-18T02:47:42;81530.50;;;-144.67;100.00
47522;BME280;32291;52.010;4.446;2022-12-18T02:48:46;81519.78;;;-144.67;100.00
47522;BME280;32291;52.010;4.446;2022-12-18T02:51:07;81517.66;;;-144.67;100.00
47522;BME280;32291;52.010;4.446;2022-12-18T02:53:43;81509.06;;;-144.67;100.00
47522;BME280;32291;52.010;4.446;2022-12-18T02:56:35;81506.94;;;-144.67;100.00
47522;BME280;32291;52.010;4.446;2022-12-18T02:57:56;81509.06;;;-144.67;100.00
47522;BME280;32291;52.010;4.446;2022-12-18T02:59:09;81509.06;;;-144.67;100.00
47522;BME280;32291;52.010;4.446;2022-12-18T03:01:58;81500.50;;;-144.67;100.00
47522;BME280;32291;52.010;4.446;2022-12-18T03:03:09;81491.94;;;-144.67;100.00
47522;BME280;32291;52.010;4.446;2022-12-18T03:04:30;81502.66;;;-144.67;100.00
47522;BME280;32291;52.010;4.446;2022-12-18T03:05:49;81500.50;;;-144.67;100.00
47522;BME280;32291;52.010;4.446;2022-12-18T03:06:57;81509.06;;;-144.67;100.00
47522;BME280;32291;52.010;4.446;2022-12-18T03:08:18;81513.34;;;-144.67;100.00
47522;BME280;32291;52.010;4.446;2022-12-18T03:09:41;81506.94;;;-144.67;100.00
47522;BME280;32291;52.010;4.446;2022-12-18T03:11:04;81515.50;;;-144.67;100.00
47522;BME280;32291;52.010;4.446;2022-12-18T03:12:35;81519.78;;;-144.67;100.00
47522;BME280;32291;52.010;4.446;2022-12-18T03:13:49;81526.22;;;-144.67;100.00
47522;BME280;32291;52.010;4.446;2022-12-18T03:15:21;81526.22;;;-144.67;100.00
47522;BME280;32291;52.010;4.446;2022-12-18T03:16:28;81534.78;;;-144.67;100.00
47522;BME280;32291;52.010;4.446;2022-12-18T03:17:33;81526.22;;;-144.67;100.00
47522;BME280;32291;52.010;4.446;2022-12-18T03:19:18;81526.22;;;-144.67;100.00
47522;BME280;32291;52.010;4.446;2022-12-18T03:20:19;81517.66;;;-144.67;100.00
47522;BME280;32291;52.010;4.446;2022-12-18T03:21:40;81519.78;;;-144.67;100.00
47522;BME280;32291;52.010;4.446;2022-12-18T03:22:51;81513.34;;;-144.67;100.00
47522;BME280;32291;52.010;4.446;2022-12-18T03:23:55;81502.66;;;-144.67;100.00
47522;BME280;32291;52.010;4.446;2022-12-18T03:25:01;81485.50;;;-144.67;100.00
47522;BME280;32291;52.010;4.446;2022-12-18T03:26:09;81491.94;;;-144.67;100.00
47522;BME280;32291;52.010;4.446;2022-12-18T03:27:14;81487.66;;;-144.67;100.00
47522;BME280;32291;52.010;4.446;2022-12-18T03:28:23;81494.06;;;-144.67;100.00
47522;BME280;32291;52.010;4.446;2022-12-18T03:29:38;81479.06;;;-144.67;100.00
47522;BME280;32291;52.010;4.446;2022-12-18T03:30:46;81491.94;;;-144.67;100.00
47522;BME280;32291;52.010;4.446;2022-12-18T03:31:58;81487.66;;;-144.67;100.00
47522;BME280;32291;52.010;4.446;2022-12-18T03:33:10;81494.06;;;-144.67;100.00
47522;BME280;32291;52.010;4.446;2022-12-18T03:34:20;81489.78;;;-144.67;100.00
47522;BME280;32291;52.010;4.446;2022-12-18T03:35:35;81487.66;;;-144.67;100.00
47522;BME280;32291;52.010;4.446;2022-12-18T03:36:39;81487.66;;;-144.67;100.00
47522;BME280;32291;52.010;4.446;2022-12-18T03:37:40;81500.50;;;-144.67;100.00
47522;BME280;32291;52.010;4.446;2022-12-18T03:38:42;81509.06;;;-144.67;100.00
47522;BME280;32291;52.010;4.446;2022-12-18T03:39:44;81509.06;;;-144.67;100.00
47522;BME280;32291;52.010;4.446;2022-12-18T03:42:50;81526.22;;;-144.67;100.00
47522;BME280;32291;52.010;4.446;2022-12-18T03:45:34;81526.22;;;-144.67;100.00
47522;BME280;32291;52.010;4.446;2022-12-18T03:47:06;81524.06;;;-144.67;100.00
47522;BME280;32291;52.010;4.446;2022-12-18T03:48:24;81521.94;;;-144.67;100.00
47522;BME280;32291;52.010;4.446;2022-12-18T03:49:38;81534.78;;;-144.67;100.00
47522;BME280;32291;52.010;4.446;2022-12-18T03:50:56;81534.78;;;-144.67;100.00
47522;BME280;32291;52.010;4.446;2022-12-18T03:52:38;81530.50;;;-144.67;100.00
47522;BME280;32291;52.010;4.446;2022-12-18T03:53:54;81539.06;;;-144.67;100.00
47522;BME280;32291;52.010;4.446;2022-12-18T03:54:59;81532.66;;;-144.67;100.00
47522;BME280;32291;52.010;4.446;2022-12-18T03:56:04;81534.78;;;-144.67;100.00
47522;BME280;32291;52.010;4.446;2022-12-18T03:57:13;81541.22;;;-144.67;100.00
47522;BME280;32291;52.010;4.446;2022-12-18T03:58:22;81534.78;;;-144.67;100.00
47522;BME280;32291;52.010;4.446;2022-12-18T03:59:27;81534.78;;;-144.67;100.00
47522;BME280;32291;52.010;4.446;2022-12-18T04:00:31;81536.94;;;-144.67;100.00
47522;BME280;32291;52.010;4.446;2022-12-18T04:01:40;81536.94;;;-144.67;100.00
47522;BME280;32291;52.010;4.446;2022-12-18T04:02:56;81543.38;;;-144.67;100.00
47522;BME280;32291;52.010;4.446;2022-12-18T04:04:01;81539.06;;;-144.67;100.00
47522;BME280;32291;52.010;4.446;2022-12-18T04:05:07;81547.66;;;-144.67;100.00
47522;BME280;32291;52.010;4.446;2022-12-18T04:06:11;81543.38;;;-144.67;100.00
47522;BME280;32291;52.010;4.446;2022-12-18T04:07:13;81539.06;;;-144.67;100.00
47522;BME280;32291;52.010;4.446;2022-12-18T04:08:17;81543.38;;;-144.67;100.00
47522;BME280;32291;52.010;4.446;2022-12-18T04:09:20;81543.38;;;-144.67;100.00
47522;BME280;32291;52.010;4.446;2022-12-18T04:10:22;81539.06;;;-144.67;100.00
47522;BME280;32291;52.010;4.446;2022-12-18T04:11:24;81539.06;;;-144.67;100.00
47522;BME280;32291;52.010;4.446;2022-12-18T04:12:28;81539.06;;;-144.67;100.00
47522;BME280;32291;52.010;4.446;2022-12-18T04:13:37;81551.94;;;-144.67;100.00
47522;BME280;32291;52.010;4.446;2022-12-18T04:14:39;81547.66;;;-144.67;100.00
47522;BME280;32291;52.010;4.446;2022-12-18T04:15:41;81556.22;;;-144.67;100.00
47522;BME280;32291;52.010;4.446;2022-12-18T04:16:42;81554.06;;;-144.67;100.00
47522;BME280;32291;52.010;4.446;2022-12-18T04:17:48;81560.50;;;-144.67;100.00
47522;BME280;32291;52.010;4.446;2022-12-18T04:18:52;81564.78;;;-144.67;100.00
47522;BME280;32291;52.010;4.446;2022-12-18T04:19:54;81569.06;;;-144.67;100.00
47522;BME280;32291;52.010;4.446;2022-12-18T04:20:56;81577.66;;;-144.67;100.00
47522;BME280;32291;52.010;4.446;2022-12-18T04:21:57;81573.38;;;-144.67;100.00
47522;BME280;32291;52.010;4.446;2022-12-18T04:22:59;81581.94;;;-144.67;100.00
47522;BME280;32291;52.010;4.446;2022-12-18T04:24:01;81586.22;;;-144.67;100.00
47522;BME280;32291;52.010;4.446;2022-12-18T04:25:04;81594.78;;;-144.67;100.00
47522;BME280;32291;52.010;4.446;2022-12-18T04:26:06;81599.09;;;-144.67;100.00
47522;BME280;32291;52.010;4.446;2022-12-18T04:27:09;81599.09;;;-144.67;100.00
47522;BME280;32291;52.010;4.446;2022-12-18T04:28:10;81599.09;;;-144.67;100.00
47522;BME280;32291;52.010;4.446;2022-12-18T04:29:12;81596.94;;;-144.67;100.00
47522;BME280;32291;52.010;4.446;2022-12-18T04:30:14;81596.94;;;-144.67;100.00
47522;BME280;32291;52.010;4.446;2022-12-18T04:31:16;81599.09;;;-144.67;100.00
47522;BME280;32291;52.010;4.446;2022-12-18T04:32:18;81592.66;;;-144.67;100.00
47522;BME280;32291;52.010;4.446;2022-12-18T04:33:20;81599.09;;;-144.67;100.00
47522;BME280;32291;52.010;4.446;2022-12-18T04:34:22;81603.38;;;-144.67;100.00
47522;BME280;32291;52.010;4.446;2022-12-18T04:35:24;81601.22;;;-144.67;100.00
47522;BME280;32291;52.010;4.446;2022-12-18T04:36:26;81603.38;;;-144.67;100.00
47522;BME280;32291;52.010;4.446;2022-12-18T04:37:29;81603.38;;;-144.67;100.00
47522;BME280;32291;52.010;4.446;2022-12-18T04:38:30;81605.50;;;-144.67;100.00
47522;BME280;32291;52.010;4.446;2022-12-18T04:39:32;81594.78;;;-144.67;100.00
47522;BME280;32291;52.010;4.446;2022-12-18T04:40:34;81601.22;;;-144.67;100.00
47522;BME280;32291;52.010;4.446;2022-12-18T04:41:36;81601.22;;;-144.67;100.00
47522;BME280;32291;52.010;4.446;2022-12-18T04:42:40;81603.38;;;-144.67;100.00
47522;BME280;32291;52.010;4.446;2022-12-18T04:43:44;81601.22;;;-144.67;100.00
47522;BME280;32291;52.010;4.446;2022-12-18T04:44:49;81616.22;;;-144.67;100.00
47522;BME280;32291;52.010;4.446;2022-12-18T04:46:05;81616.22;;;-144.67;100.00
47522;BME280;32291;52.010;4.446;2022-12-18T04:47:08;81624.81;;;-144.67;100.00
47522;BME280;32291;52.010;4.446;2022-12-18T04:48:11;81624.81;;;-144.67;100.00
47522;BME280;32291;52.010;4.446;2022-12-18T04:49:15;81626.94;;;-144.67;100.00
47522;BME280;32291;52.010;4.446;2022-12-18T04:50:16;81629.09;;;-144.67;100.00
47522;BME280;32291;52.010;4.446;2022-12-18T04:51:18;81644.09;;;-144.67;100.00
47522;BME280;32291;52.010;4.446;2022-12-18T04:52:27;81646.22;;;-144.67;100.00
47522;BME280;32291;52.010;4.446;2022-12-18T04:53:32;81654.81;;;-144.67;100.00
47522;BME280;32291;52.010;4.446;2022-12-18T04:54:34;81654.81;;;-144.67;100.00
47522;BME280;32291;52.010;4.446;2022-12-18T04:55:36;81667.66;;;-144.67;100.00
47522;BME280;32291;52.010;4.446;2022-12-18T04:56:38;81667.66;;;-144.67;100.00
47522;BME280;32291;52.010;4.446;2022-12-18T04:57:39;81669.81;;;-144.67;100.00
47522;BME280;32291;52.010;4.446;2022-12-18T04:58:43;81671.94;;;-144.67;100.00
47522;BME280;32291;52.010;4.446;2022-12-18T04:59:46;81678.38;;;-144.67;100.00
47522;BME280;32291;52.010;4.446;2022-12-18T05:00:48;81671.94;;;-144.67;100.00
47522;BME280;32291;52.010;4.446;2022-12-18T05:01:50;81678.38;;;-144.67;100.00
47522;BME280;32291;52.010;4.446;2022-12-18T05:02:52;81676.22;;;-144.67;100.00
47522;BME280;32291;52.010;4.446;2022-12-18T05:03:53;81689.09;;;-144.67;100.00
47522;BME280;32291;52.010;4.446;2022-12-18T05:04:55;81680.53;;;-144.67;100.00
47522;BME280;32291;52.010;4.446;2022-12-18T05:05:57;81684.81;;;-144.67;100.00
47522;BME280;32291;52.010;4.446;2022-12-18T05:06:59;81684.81;;;-144.67;100.00
47522;BME280;32291;52.010;4.446;2022-12-18T05:08:01;81691.22;;;-144.67;100.00
47522;BME280;32291;52.010;4.446;2022-12-18T05:09:03;81691.22;;;-144.67;100.00
47522;BME280;32291;52.010;4.446;2022-12-18T05:10:07;81695.53;;;-144.67;100.00
47522;BME280;32291;52.010;4.446;2022-12-18T05:11:13;81693.38;;;-144.67;100.00
47522;BME280;32291;52.010;4.446;2022-12-18T05:12:17;81697.66;;;-144.67;100.00
47522;BME280;32291;52.010;4.446;2022-12-18T05:13:19;81701.94;;;-144.67;100.00
47522;BME280;32291;52.010;4.446;2022-12-18T05:14:21;81704.09;;;-144.67;100.00
47522;BME280;32291;52.010;4.446;2022-12-18T05:15:22;81708.38;;;-144.67;100.00
47522;BME280;32291;52.010;4.446;2022-12-18T05:16:24;81708.38;;;-144.67;100.00
47522;BME280;32291;52.010;4.446;2022-12-18T05:17:26;81706.25;;;-144.67;100.00
47522;BME280;32291;52.010;4.446;2022-12-18T05:18:28;81710.53;;;-144.67;100.00
47522;BME280;32291;52.010;4.446;2022-12-18T05:19:30;81714.81;;;-144.67;100.00
47522;BME280;32291;52.010;4.446;2022-12-18T05:20:32;81719.09;;;-144.67;100.00
47522;BME280;32291;52.010;4.446;2022-12-18T05:21:34;81719.09;;;-144.67;100.00
47522;BME280;32291;52.010;4.446;2022-12-18T05:22:36;81721.25;;;-144.67;100.00
47522;BME280;32291;52.010;4.446;2022-12-18T05:23:38;81714.81;;;-144.67;100.00
47522;BME280;32291;52.010;4.446;2022-12-18T05:24:40;81716.94;;;-144.67;100.00
47522;BME280;32291;52.010;4.446;2022-12-18T05:25:42;81723.38;;;-144.67;100.00
47522;BME280;32291;52.010;4.446;2022-12-18T05:26:47;81710.53;;;-144.67;100.00
47522;BME280;32291;52.010;4.446;2022-12-18T05:27:49;81710.53;;;-144.67;100.00
47522;BME280;32291;52.010;4.446;2022-12-18T05:28:52;81719.09;;;-144.67;100.00
47522;BME280;32291;52.010;4.446;2022-12-18T05:29:54;81712.66;;;-144.67;100.00
47522;BME280;32291;52.010;4.446;2022-12-18T05:30:59;81706.25;;;-144.67;100.00
47522;BME280;32291;52.010;4.446;2022-12-18T05:32:01;81706.25;;;-144.67;100.00
47522;BME280;32291;52.010;4.446;2022-12-18T05:33:03;81704.09;;;-144.67;100.00
47522;BME280;32291;52.010;4.446;2022-12-18T05:34:05;81701.94;;;-144.67;100.00
47522;BME280;32291;52.010;4.446;2022-12-18T05:35:09;81697.66;;;-144.67;100.00
47522;BME280;32291;52.010;4.446;2022-12-18T05:36:11;81706.25;;;-144.67;100.00
47522;BME280;32291;52.010;4.446;2022-12-18T05:37:13;81708.38;;;-144.67;100.00
47522;BME280;32291;52.010;4.446;2022-12-18T05:38:15;81712.66;;;-144.67;100.00
47522;BME280;32291;52.010;4.446;2022-12-18T05:39:16;81716.94;;;-144.67;100.00
47522;BME280;32291;52.010;4.446;2022-12-18T05:40:18;81721.25;;;-144.67;100.00
47522;BME280;32291;52.010;4.446;2022-12-18T05:41:20;81719.09;;;-144.67;100.00
47522;BME280;32291;52.010;4.446;2022-12-18T05:42:23;81714.81;;;-144.67;100.00
47522;BME280;32291;52.010;4.446;2022-12-18T05:43:26;81723.38;;;-144.67;100.00
47522;BME280;32291;52.010;4.446;2022-12-18T05:44:29;81727.66;;;-144.67;100.00
47522;BME280;32291;52.010;4.446;2022-12-18T05:45:30;81723.38;;;-144.67;100.00
47522;BME280;32291;52.010;4.446;2022-12-18T05:46:32;81723.38;;;-144.67;100.00
47522;BME280;32291;52.010;4.446;2022-12-18T05:47:34;81723.38;;;-144.67;100.00
47522;BME280;32291;52.010;4.446;2022-12-18T05:48:36;81727.66;;;-144.67;100.00
47522;BME280;32291;52.010;4.446;2022-12-18T05:49:38;81723.38;;;-144.67;100.00
47522;BME280;32291;52.010;4.446;2022-12-18T05:50:42;81721.25;;;-144.67;100.00
47522;BME280;32291;52.010;4.446;2022-12-18T05:51:44;81727.66;;;-144.67;100.00
47522;BME280;32291;52.010;4.446;2022-12-18T05:52:45;81719.09;;;-144.67;100.00
47522;BME280;32291;52.010;4.446;2022-12-18T05:53:48;81721.25;;;-144.67;100.00
47522;BME280;32291;52.010;4.446;2022-12-18T05:54:50;81723.38;;;-144.67;100.00
47522;BME280;32291;52.010;4.446;2022-12-18T05:55:52;81729.81;;;-144.67;100.00